SARE

Resistencia International Airport

Airport
ICAO code
SARE
IATA Code
RES
Summary
ICAO Region
CARSAM
ICAO Territory
Location

Resistencia, Chaco

Serving
Resistencia
Elevation
173 ft
Coordinates
27° 26' 60" S , 59° 3' 22" W
KCC
Metar
SARE 240600Z 20006KT CAVOK 23/21 Q1012

Airport serving Resistencia, Chaco Province, Argentina. Also known as Aeropuerto de Resistencia General Jose de San Martin.

Climatology

Humid Sub-tropical climate (Köppen climate classification Cfa).

Runways

Designator Length Width Surface Rops
3/21 2770 45 ASP Yes/Yes

Airport map

Aerial View

SKYbrary Partners:

Safety knowledge contributed by: